Mekoryuk, AK (99630)

10:49 PM AKST on December 12, 2019 (GMT -0900)
Mekoryuk | | Change Station

Elev 46 ft 60.37 °N, 166.27 °W | Updated 1 hour ago

Snow
Snow
28 °F
Feels Like 23 °F
N
5
Wind Variable Wind from NNW

Today
High -- | Low -- °F
--% Chance of Precip.
Yesterday
High -- | Low -- °F
Precip. -- in
Pressure 29.25 in
Visibility 8.0 miles
Clouds Mostly Cloudy 500 ft
Mostly Cloudy 1000 ft
Overcast 2700 ft
Windchill 23 °F
Dew Point 27 °F
Humidity 93%
Rainfall 0.00 in
Snow Depth Not available.
11:02 AM 4:54 PM
Full, 99% visible
SPECI PAMY 130638Z AUTO 33004KT 8SM -SN BKN005 BKN010 OVC027 M02/M03 A2925 RMK AO2 SNE01B30 P0000 FZRANO
Pressure 29.25 in
Visibility 8.0 miles
Clouds Mostly Cloudy 500 ft
Mostly Cloudy 1000 ft
Overcast 2700 ft
Windchill 23 °F
Dew Point 27 °F
Humidity 93%
Rainfall 0.00 in
Snow Depth Not available.
11:02 AM 4:54 PM
Full, 99% visible
SPECI PAMY 130638Z AUTO 33004KT 8SM -SN BKN005 BKN010 OVC027 M02/M03 A2925 RMK AO2 SNE01B30 P0000 FZRANO

Get Severe Weather Alerts

Thanks for signing up!

Be on the lookout for a verification email in your inbox.

You'll start receiving the daily forecast at 6 AM.

×

10-Day Weather Forecast

Almanac

Astronomy

Dec. 12, 2019 Rise Set
Actual Time
Civil Twilight
Nautical Twilight
Astronomical Twilight
Moon
Length of Visible Light
Length of Day
Tomorrow will be .
, % of the Moon is Illuminated

Today's Extremes

State Highs State Lows

Community

WunderPhotos

Category 6

Welcome to Category 6. This is the collective home for Weather Underground's featured writeups by Dr. Jeff Masters (right), Bob Henson (left), Chris Burt, and other regular contributors.

Nearby

Air Quality

  Air Quality AQ Index Pollutant
Not available.

Snow Depth

Station Depth Elevation

Earthquake Activity

City Distance Mag. Time & Date
Minimum magnitude displayed is 2.5.

Coastal Water Temperatures

Place Temperature

Stations

Nearby Weather Stations

Station Location Temp. Windchill Dew Point Humidity Wind Precip. Elev Updated Type
                   

Watches & Warnings

There are currently no watches in effect.